createdAt,value
2023-04-22T00:00:27.078Z,6.40
2023-04-22T00:02:56.583Z,5.90
2023-04-22T00:05:24.799Z,5.90
2023-04-22T00:07:53.194Z,6.40
2023-04-22T00:10:21.435Z,6.40
2023-04-22T00:12:49.702Z,5.60
2023-04-22T00:15:21.669Z,6.40
2023-04-22T00:17:50.011Z,6.40
2023-04-22T00:20:21.523Z,5.90
2023-04-22T00:22:49.894Z,6.20
2023-04-22T00:25:17.997Z,6.00
2023-04-22T00:27:46.250Z,5.90
2023-04-22T00:30:15.357Z,5.80
2023-04-22T00:32:43.507Z,5.90
2023-04-22T00:35:11.805Z,6.20
2023-04-22T00:37:40.001Z,6.40
2023-04-22T00:40:09.094Z,6.30
2023-04-22T00:42:37.979Z,6.10
2023-04-22T00:45:10.450Z,6.40
2023-04-22T00:47:38.986Z,5.60
2023-04-22T00:50:08.276Z,6.70
2023-04-22T00:52:36.613Z,6.30
2023-04-22T00:55:05.667Z,6.30
2023-04-22T00:57:36.074Z,6.30
2023-04-22T01:00:09.881Z,6.10
2023-04-22T01:02:39.030Z,6.10
2023-04-22T01:05:11.347Z,5.70
2023-04-22T01:07:39.645Z,6.00
2023-04-22T01:10:08.567Z,6.00
2023-04-22T01:12:37.003Z,5.20
2023-04-22T01:15:06.749Z,5.50
2023-04-22T01:17:35.119Z,5.70
2023-04-22T01:20:07.378Z,5.00
2023-04-22T01:22:37.383Z,5.60
2023-04-22T01:25:07.042Z,4.90
2023-04-22T01:27:35.704Z,5.30
2023-04-22T01:30:05.293Z,5.50
2023-04-22T01:32:33.719Z,5.60
2023-04-22T01:35:02.095Z,5.70
2023-04-22T01:37:31.173Z,6.20
2023-04-22T01:39:59.581Z,5.20
2023-04-22T01:42:27.748Z,5.80
2023-04-22T01:44:55.834Z,5.30
2023-04-22T01:47:24.013Z,5.10
2023-04-22T01:49:53.203Z,5.10
2023-04-22T01:52:21.705Z,5.30
2023-04-22T01:54:50.076Z,5.50
2023-04-22T01:57:18.358Z,5.20
2023-04-22T01:59:46.889Z,5.60
2023-04-22T02:02:16.593Z,5.30
2023-04-22T02:04:44.868Z,5.10
2023-04-22T02:07:13.686Z,4.90
2023-04-22T02:09:42.092Z,6.10
2023-04-22T02:12:10.818Z,4.80
2023-04-22T02:14:41.647Z,4.90
2023-04-22T02:17:09.947Z,5.50
2023-04-22T02:19:38.866Z,5.10
2023-04-22T02:22:07.398Z,5.50
2023-04-22T02:24:35.796Z,5.80
2023-04-22T02:27:04.186Z,5.40
2023-04-22T02:29:32.803Z,5.40
2023-04-22T02:32:01.152Z,6.10
2023-04-22T02:34:30.383Z,5.10
2023-04-22T02:36:58.558Z,5.70
2023-04-22T02:39:26.737Z,4.80
2023-04-22T02:41:55.173Z,5.00
2023-04-22T02:44:23.299Z,5.40
2023-04-22T02:46:51.495Z,5.50
2023-04-22T02:49:19.752Z,5.20
2023-04-22T02:51:48.140Z,6.00
2023-04-22T02:54:16.301Z,5.70
2023-04-22T02:56:44.361Z,5.10
2023-04-22T02:59:12.553Z,5.30
2023-04-22T03:01:40.824Z,5.80
2023-04-22T03:04:12.521Z,5.30
2023-04-22T03:06:41.218Z,5.30
2023-04-22T03:09:09.459Z,4.50
2023-04-22T03:11:37.677Z,4.90
2023-04-22T03:14:06.470Z,5.60
2023-04-22T03:16:34.989Z,6.00
2023-04-22T03:19:05.560Z,5.50
2023-04-22T03:21:33.843Z,5.60
2023-04-22T03:24:02.615Z,5.40
2023-04-22T03:26:32.874Z,5.20
2023-04-22T03:29:01.556Z,5.90
2023-04-22T03:31:30.085Z,5.40
2023-04-22T03:33:58.209Z,5.70
2023-04-22T03:36:29.577Z,5.60
2023-04-22T03:38:58.059Z,4.90
2023-04-22T03:41:26.852Z,6.50
2023-04-22T03:43:55.037Z,6.10
2023-04-22T03:46:23.528Z,5.90
2023-04-22T03:49:01.119Z,5.40
2023-04-22T03:51:30.884Z,5.40
2023-04-22T03:53:59.929Z,5.50
2023-04-22T03:56:29.258Z,5.60
2023-04-22T03:58:59.455Z,5.50
2023-04-22T04:01:27.801Z,5.60
2023-04-22T04:03:59.742Z,5.70
2023-04-22T04:06:34.026Z,6.70
2023-04-22T04:09:02.325Z,5.80
2023-04-22T04:11:31.405Z,6.20
2023-04-22T04:14:01.129Z,6.30
2023-04-22T04:16:34.191Z,5.60
2023-04-22T04:19:08.064Z,5.80
2023-04-22T04:21:39.684Z,5.70
2023-04-22T04:24:08.162Z,6.70
2023-04-22T04:26:40.536Z,5.40
2023-04-22T04:29:13.933Z,6.10
2023-04-22T04:31:44.309Z,5.90
2023-04-22T04:34:12.624Z,6.30
2023-04-22T04:36:40.823Z,5.50
2023-04-22T04:39:17.505Z,6.40
2023-04-22T04:41:45.775Z,6.30
2023-04-22T04:44:13.936Z,6.30
2023-04-22T04:46:42.655Z,6.50
2023-04-22T04:49:12.720Z,6.30
2023-04-22T04:52:00.035Z,6.50
2023-04-22T04:54:29.186Z,6.10
2023-04-22T04:56:58.728Z,5.80
2023-04-22T04:59:27.896Z,6.40
2023-04-22T05:01:56.242Z,5.70
2023-04-22T05:04:24.755Z,5.90
2023-04-22T05:06:53.252Z,6.10
2023-04-22T05:09:21.745Z,5.80
2023-04-22T05:11:50.279Z,6.60
2023-04-22T05:14:21.219Z,7.10
2023-04-22T05:16:49.889Z,6.60
2023-04-22T05:19:18.299Z,6.50
2023-04-22T05:21:47.617Z,6.70
2023-04-22T05:24:16.959Z,6.70
2023-04-22T05:26:45.963Z,6.60
2023-04-22T05:29:18.428Z,6.70
2023-04-22T05:31:47.403Z,7.50
2023-04-22T05:34:15.868Z,6.90
2023-04-22T05:36:44.372Z,6.60
2023-04-22T05:39:13.200Z,7.20
2023-04-22T05:41:41.481Z,6.40
2023-04-22T05:44:11.209Z,6.80
2023-04-22T05:46:39.519Z,6.80
2023-04-22T05:49:07.856Z,5.80
2023-04-22T05:52:14.533Z,7.60
2023-04-22T05:54:58.426Z,6.00
2023-04-22T05:57:26.494Z,6.70
2023-04-22T05:59:54.710Z,6.20
2023-04-22T06:02:24.153Z,6.40
2023-04-22T06:04:52.593Z,7.20
2023-04-22T06:07:23.311Z,6.50
2023-04-22T06:09:59.430Z,6.70
2023-04-22T06:12:34.200Z,6.80
2023-04-22T06:15:02.416Z,6.30
2023-04-22T06:17:31.638Z,7.10
2023-04-22T06:20:00.146Z,7.00
2023-04-22T06:22:28.501Z,7.50
2023-04-22T06:24:56.639Z,7.30
2023-04-22T06:27:24.746Z,7.10
2023-04-22T06:29:53.030Z,6.60
2023-04-22T06:32:21.292Z,6.30
2023-04-22T06:34:49.598Z,6.20
2023-04-22T06:37:18.186Z,6.60
2023-04-22T06:39:46.870Z,6.30
2023-04-22T06:42:42.799Z,6.40
2023-04-22T06:45:40.667Z,6.00
2023-04-22T06:48:19.687Z,6.70
2023-04-22T06:51:07.804Z,10.40
2023-04-22T06:53:36.105Z,6.90
2023-04-22T06:56:05.498Z,6.40
2023-04-22T06:58:34.115Z,7.20
2023-04-22T07:01:02.574Z,6.20
2023-04-22T07:03:30.834Z,6.40
2023-04-22T07:06:03.343Z,6.60
2023-04-22T07:08:31.643Z,6.40
2023-04-22T07:10:59.833Z,7.40
2023-04-22T07:13:35.423Z,6.90
2023-04-22T07:16:03.526Z,6.80
2023-04-22T07:18:32.229Z,7.40
2023-04-22T07:21:01.158Z,7.00
2023-04-22T07:23:29.589Z,6.50
2023-04-22T07:25:57.769Z,7.00
2023-04-22T07:28:26.044Z,7.60
2023-04-22T07:30:54.433Z,6.50
2023-04-22T07:33:23.641Z,6.40
2023-04-22T07:35:51.811Z,6.80
2023-04-22T07:38:21.108Z,6.10
2023-04-22T07:40:49.597Z,6.10
2023-04-22T07:43:17.699Z,6.70
2023-04-22T07:45:46.133Z,6.40
2023-04-22T07:48:14.256Z,6.80
2023-04-22T07:50:42.315Z,7.80
2023-04-22T07:53:11.050Z,7.50
2023-04-22T07:55:39.284Z,6.90
2023-04-22T07:58:07.371Z,7.30
2023-04-22T08:00:36.454Z,7.40
2023-04-22T08:03:04.983Z,6.40
2023-04-22T08:05:33.626Z,7.30
2023-04-22T08:08:01.667Z,5.80
2023-04-22T08:10:29.840Z,6.40
2023-04-22T08:12:57.907Z,6.90
2023-04-22T08:15:26.042Z,6.70
2023-04-22T08:17:54.063Z,6.50
2023-04-22T08:20:22.135Z,7.20
2023-04-22T08:22:51.632Z,7.10
2023-04-22T08:25:19.695Z,5.90
2023-04-22T08:27:47.696Z,5.90
2023-04-22T08:30:16.325Z,6.80
2023-04-22T08:32:44.818Z,6.20
2023-04-22T08:35:13.027Z,6.80
2023-04-22T08:37:41.807Z,6.60
2023-04-22T08:40:10.341Z,6.20
2023-04-22T08:42:39.031Z,6.50
2023-04-22T08:45:09.302Z,6.10
2023-04-22T08:47:37.796Z,7.50
2023-04-22T08:50:07.289Z,6.60
2023-04-22T08:52:35.491Z,6.20
2023-04-22T08:55:04.082Z,7.60
2023-04-22T08:57:32.208Z,6.10
2023-04-22T09:00:00.674Z,6.10
2023-04-22T09:02:29.026Z,6.70
2023-04-22T09:04:57.095Z,6.30
2023-04-22T09:07:27.344Z,6.90
2023-04-22T09:09:55.811Z,8.20
2023-04-22T09:12:25.338Z,6.30
2023-04-22T09:14:54.777Z,6.40
2023-04-22T09:17:33.320Z,7.40
2023-04-22T09:20:02.338Z,5.90
2023-04-22T09:22:41.262Z,6.50
2023-04-22T09:25:16.303Z,6.10
2023-04-22T09:27:51.771Z,9.00
2023-04-22T09:30:27.232Z,7.50
2023-04-22T09:32:57.362Z,6.80
2023-04-22T09:35:32.722Z,6.20
2023-04-22T09:38:08.017Z,6.70
2023-04-22T09:40:36.904Z,6.50
2023-04-22T09:43:06.735Z,6.30
2023-04-22T09:45:36.889Z,6.20
2023-04-22T09:48:14.776Z,5.60
2023-04-22T09:50:50.368Z,5.90
2023-04-22T09:53:19.898Z,5.80
2023-04-22T09:55:50.080Z,5.40
2023-04-22T09:58:20.355Z,5.30
2023-04-22T10:00:50.764Z,5.50
2023-04-22T10:03:19.750Z,5.40
2023-04-22T10:05:48.002Z,5.20
2023-04-22T10:08:16.464Z,5.20
2023-04-22T10:10:44.790Z,5.30
2023-04-22T10:13:17.325Z,5.80
2023-04-22T10:15:53.108Z,5.40
2023-04-22T10:18:26.098Z,5.60
2023-04-22T10:20:54.948Z,4.70
2023-04-22T10:23:23.988Z,4.90
2023-04-22T10:25:55.393Z,4.90
2023-04-22T10:28:24.650Z,4.70
2023-04-22T10:30:52.816Z,3.90
2023-04-22T10:33:36.865Z,4.30
2023-04-22T10:36:18.034Z,4.10
2023-04-22T10:38:55.208Z,4.40
2023-04-22T10:41:24.020Z,4.50
2023-04-22T10:44:01.740Z,4.80
2023-04-22T10:46:33.146Z,4.40
2023-04-22T10:49:07.947Z,5.00
2023-04-22T10:54:07.695Z,4.40
2023-04-22T10:56:37.491Z,4.10
2023-04-22T10:59:17.310Z,6.90
2023-04-22T11:01:45.614Z,5.00
2023-04-22T11:04:23.788Z,5.20
2023-04-22T11:07:27.058Z,4.80
2023-04-22T11:10:07.893Z,4.60
2023-04-22T11:12:36.068Z,5.00
2023-04-22T11:15:16.567Z,4.80
2023-04-22T11:17:51.394Z,6.00
2023-04-22T11:20:19.503Z,6.80
2023-04-22T11:22:55.708Z,5.30
2023-04-22T11:25:24.523Z,5.00
2023-04-22T11:27:52.825Z,5.80
2023-04-22T11:30:22.321Z,4.90
2023-04-22T11:32:59.283Z,4.00
2023-04-22T11:35:29.847Z,3.90
2023-04-22T11:38:02.748Z,3.60
2023-04-22T11:40:35.859Z,3.70
2023-04-22T11:43:07.228Z,3.60
2023-04-22T11:45:36.810Z,4.10
2023-04-22T11:48:06.743Z,3.90
2023-04-22T11:50:37.111Z,4.60
2023-04-22T11:53:12.846Z,4.10
2023-04-22T11:55:41.176Z,3.90
2023-04-22T11:58:11.089Z,3.50
2023-04-22T12:00:48.634Z,3.80
2023-04-22T12:03:21.393Z,5.30
2023-04-22T12:05:57.451Z,4.10
2023-04-22T12:08:30.624Z,3.70
2023-04-22T12:11:06.458Z,4.40
2023-04-22T12:13:38.336Z,3.70
2023-04-22T12:16:12.170Z,3.50
2023-04-22T12:18:42.129Z,3.70
2023-04-22T12:21:11.137Z,3.80
2023-04-22T12:23:43.502Z,3.60
2023-04-22T12:26:12.357Z,3.60
2023-04-22T12:28:40.756Z,3.50
2023-04-22T12:31:09.158Z,3.80
2023-04-22T12:33:37.833Z,4.10
2023-04-22T12:36:06.179Z,4.50
2023-04-22T12:38:34.906Z,4.10
2023-04-22T12:41:04.340Z,4.80
2023-04-22T12:43:35.446Z,4.00
2023-04-22T12:46:04.456Z,3.40
2023-04-22T12:48:33.092Z,3.90
2023-04-22T12:51:01.397Z,3.40
2023-04-22T12:53:31.037Z,3.20
2023-04-22T12:55:59.305Z,3.10
2023-04-22T12:58:27.492Z,3.40
2023-04-22T13:00:55.725Z,3.60
2023-04-22T13:03:24.385Z,3.30
2023-04-22T13:05:52.826Z,3.40
2023-04-22T13:08:21.341Z,3.20
2023-04-22T13:10:50.735Z,3.50
2023-04-22T13:13:19.624Z,3.20
2023-04-22T13:15:53.590Z,3.00
2023-04-22T13:18:23.424Z,2.70
2023-04-22T13:20:51.774Z,2.80
2023-04-22T13:23:22.101Z,3.30
2023-04-22T13:25:50.470Z,3.30
2023-04-22T13:28:19.057Z,1.90
2023-04-22T13:30:47.100Z,2.00
2023-04-22T13:33:15.724Z,2.30
2023-04-22T13:35:43.851Z,2.70
2023-04-22T13:38:12.218Z,2.80
2023-04-22T13:40:40.360Z,2.60
2023-04-22T13:43:09.307Z,3.40
2023-04-22T13:45:37.485Z,3.20
2023-04-22T13:48:05.710Z,2.80
2023-04-22T13:50:34.463Z,2.00
2023-04-22T13:53:04.127Z,1.90
2023-04-22T13:55:32.561Z,1.60
2023-04-22T13:58:01.257Z,1.50
2023-04-22T14:00:29.598Z,1.20
2023-04-22T14:03:00.001Z,1.40
2023-04-22T14:05:28.260Z,1.70
2023-04-22T14:07:56.432Z,4.80
2023-04-22T14:10:26.613Z,4.70
2023-04-22T14:12:56.071Z,1.70
2023-04-22T14:15:24.477Z,1.70
2023-04-22T14:17:53.503Z,1.20
2023-04-22T14:20:25.321Z,1.50
2023-04-22T14:22:53.518Z,0.90
2023-04-22T14:25:21.917Z,1.00
2023-04-22T14:27:50.185Z,1.20
2023-04-22T14:30:18.450Z,1.40
2023-04-22T14:32:46.700Z,1.20
2023-04-22T14:35:14.882Z,1.30
2023-04-22T14:37:45.195Z,1.00
2023-04-22T14:40:13.595Z,1.10
2023-04-22T14:42:42.322Z,1.20
2023-04-22T14:45:10.939Z,1.00
2023-04-22T14:47:39.298Z,1.20
2023-04-22T14:50:07.625Z,1.20
2023-04-22T14:52:36.250Z,0.80
2023-04-22T14:55:15.571Z,0.80
2023-04-22T14:57:52.603Z,1.30
2023-04-22T15:00:21.083Z,1.40
2023-04-22T15:02:49.328Z,1.20
2023-04-22T15:05:17.640Z,1.20
2023-04-22T15:07:45.729Z,1.50
2023-04-22T15:10:14.460Z,1.40
2023-04-22T15:12:43.225Z,1.50
2023-04-22T15:15:16.183Z,0.90
2023-04-22T15:17:44.501Z,1.10
2023-04-22T15:20:12.991Z,1.10
2023-04-22T15:22:41.678Z,1.40
2023-04-22T15:25:10.385Z,1.20
2023-04-22T15:27:38.875Z,1.00
2023-04-22T15:30:07.653Z,1.30
2023-04-22T15:32:37.333Z,3.20
2023-04-22T15:35:07.488Z,1.90
2023-04-22T15:37:36.058Z,1.30
2023-04-22T15:40:06.807Z,1.30
2023-04-22T15:42:35.139Z,1.10
2023-04-22T15:45:04.032Z,1.20
2023-04-22T15:47:33.315Z,2.00
2023-04-22T15:50:09.413Z,1.80
2023-04-22T15:52:38.345Z,1.30
2023-04-22T15:55:07.793Z,1.30
2023-04-22T15:57:36.545Z,1.10
2023-04-22T16:00:12.531Z,1.70
2023-04-22T16:02:44.779Z,1.70
2023-04-22T16:05:14.852Z,1.40
2023-04-22T16:07:43.431Z,1.40
2023-04-22T16:10:11.498Z,1.00
2023-04-22T16:12:42.149Z,1.50
2023-04-22T16:15:11.149Z,1.20
2023-04-22T16:17:39.493Z,1.10
2023-04-22T16:20:08.721Z,1.30
2023-04-22T16:22:37.318Z,1.20
2023-04-22T16:25:06.480Z,1.50
2023-04-22T16:27:34.611Z,1.70
2023-04-22T16:30:02.699Z,1.60
2023-04-22T16:32:31.519Z,1.40
2023-04-22T16:34:59.774Z,1.90
2023-04-22T16:37:28.223Z,1.50
2023-04-22T16:39:56.584Z,1.50
2023-04-22T16:42:24.910Z,1.60
2023-04-22T16:44:53.086Z,1.30
2023-04-22T16:47:21.357Z,1.60
2023-04-22T16:49:49.348Z,2.00
2023-04-22T16:52:17.468Z,1.70
2023-04-22T16:54:45.712Z,1.50
2023-04-22T16:57:13.969Z,1.30
2023-04-22T16:59:42.276Z,1.50
2023-04-22T17:02:10.771Z,1.40
2023-04-22T17:04:38.937Z,1.40
2023-04-22T17:07:07.698Z,2.00
2023-04-22T17:09:36.028Z,2.10
2023-04-22T17:12:04.229Z,1.60
2023-04-22T17:14:33.151Z,1.70
2023-04-22T17:17:01.186Z,1.70
2023-04-22T17:19:29.507Z,1.50
2023-04-22T17:21:57.635Z,1.50
2023-04-22T17:24:25.705Z,1.60
2023-04-22T17:26:53.931Z,1.50
2023-04-22T17:29:22.008Z,1.50
2023-04-22T17:31:51.015Z,1.60
2023-04-22T17:34:19.212Z,1.70
2023-04-22T17:36:47.340Z,1.80
2023-04-22T17:39:15.491Z,2.30
2023-04-22T17:41:44.026Z,2.00
2023-04-22T17:44:12.496Z,1.90
2023-04-22T17:46:41.711Z,2.20
2023-04-22T17:49:10.056Z,2.10
2023-04-22T17:51:38.120Z,1.70
2023-04-22T17:54:06.477Z,2.00
2023-04-22T17:56:34.733Z,1.90
2023-04-22T17:59:02.841Z,2.40
2023-04-22T18:01:30.905Z,2.00
2023-04-22T18:03:59.394Z,2.10
2023-04-22T18:06:29.294Z,2.20
2023-04-22T18:08:57.693Z,2.20
2023-04-22T18:11:28.003Z,2.20
2023-04-22T18:13:56.213Z,2.70
2023-04-22T18:16:24.524Z,2.90
2023-04-22T18:18:52.736Z,2.90
2023-04-22T18:21:20.723Z,2.70
2023-04-22T18:23:48.693Z,3.10
2023-04-22T18:26:17.305Z,3.00
2023-04-22T18:28:45.584Z,2.80
2023-04-22T18:31:13.621Z,2.70
2023-04-22T18:33:41.665Z,3.40
2023-04-22T18:36:09.859Z,2.90
2023-04-22T18:38:39.016Z,3.70
2023-04-22T18:41:07.400Z,3.90
2023-04-22T18:43:36.643Z,3.20
2023-04-22T18:46:04.781Z,2.80
2023-04-22T18:48:32.976Z,2.70
2023-04-22T18:51:01.464Z,3.10
2023-04-22T18:53:30.537Z,3.60
2023-04-22T18:55:58.822Z,3.20
2023-04-22T18:58:27.416Z,3.00
2023-04-22T19:00:55.729Z,3.20
2023-04-22T19:03:24.441Z,4.10
2023-04-22T19:05:52.739Z,4.10
2023-04-22T19:08:21.127Z,4.70
2023-04-22T19:10:49.173Z,5.20
2023-04-22T19:13:28.556Z,3.40
2023-04-22T19:15:57.781Z,3.50
2023-04-22T19:18:25.984Z,3.50
2023-04-22T19:20:54.116Z,4.00
2023-04-22T19:23:22.491Z,4.20
2023-04-22T19:25:51.988Z,3.40
2023-04-22T19:28:20.107Z,3.50
2023-04-22T19:30:48.457Z,3.70
2023-04-22T19:33:16.912Z,3.40
2023-04-22T19:35:46.038Z,3.60
2023-04-22T19:38:19.184Z,4.10
2023-04-22T19:40:47.700Z,4.10
2023-04-22T19:43:19.098Z,3.80
2023-04-22T19:45:47.401Z,3.60
2023-04-22T19:48:15.696Z,3.80
2023-04-22T19:50:43.787Z,3.60
2023-04-22T19:53:12.018Z,3.70
2023-04-22T19:55:40.208Z,4.20
2023-04-22T19:58:08.195Z,3.70
2023-04-22T20:00:37.394Z,3.50
2023-04-22T20:03:06.831Z,3.90
2023-04-22T20:05:37.367Z,3.40
2023-04-22T20:08:05.512Z,3.30
2023-04-22T20:10:34.036Z,3.90
2023-04-22T20:13:04.455Z,3.90
2023-04-22T20:15:34.162Z,4.00
2023-04-22T20:18:02.399Z,4.40
2023-04-22T20:20:31.121Z,3.60
2023-04-22T20:23:01.371Z,3.90
2023-04-22T20:25:31.100Z,3.50
2023-04-22T20:27:59.328Z,3.40
2023-04-22T20:30:27.559Z,3.40
2023-04-22T20:32:56.462Z,3.70
2023-04-22T20:35:24.942Z,3.40
2023-04-22T20:37:54.164Z,3.30
2023-04-22T20:40:24.535Z,3.60
2023-04-22T20:42:52.800Z,3.60
2023-04-22T20:45:20.794Z,4.90
2023-04-22T20:47:48.872Z,4.70
2023-04-22T20:50:17.495Z,4.00
2023-04-22T20:52:45.768Z,4.20
2023-04-22T20:55:13.809Z,3.70
2023-04-22T20:57:41.834Z,3.50
2023-04-22T21:00:10.433Z,5.00
2023-04-22T21:02:39.727Z,4.50
2023-04-22T21:05:09.421Z,3.60
2023-04-22T21:07:39.890Z,3.70
2023-04-22T21:10:09.141Z,3.40
2023-04-22T21:12:38.301Z,3.60
2023-04-22T21:15:07.322Z,3.70
2023-04-22T21:17:35.942Z,4.50
2023-04-22T21:20:05.641Z,5.30
2023-04-22T21:22:33.838Z,4.40
2023-04-22T21:25:01.991Z,4.20
2023-04-22T21:27:31.338Z,3.10
2023-04-22T21:29:59.389Z,3.30
2023-04-22T21:32:27.780Z,3.00
2023-04-22T21:34:56.901Z,2.50
2023-04-22T21:37:24.954Z,2.60
2023-04-22T21:39:53.176Z,2.50
2023-04-22T21:42:21.586Z,3.00
2023-04-22T21:44:49.981Z,3.00
2023-04-22T21:47:18.235Z,2.80
2023-04-22T21:49:47.253Z,3.00
2023-04-22T21:52:15.527Z,3.70
2023-04-22T21:54:44.150Z,3.70
2023-04-22T21:57:12.392Z,4.30
2023-04-22T21:59:40.923Z,4.20
2023-04-22T22:02:09.003Z,3.30
2023-04-22T22:04:37.936Z,3.60
2023-04-22T22:07:06.940Z,3.70
2023-04-22T22:09:35.247Z,3.80
2023-04-22T22:12:04.308Z,3.00
2023-04-22T22:14:32.780Z,3.40
2023-04-22T22:17:01.550Z,2.80
2023-04-22T22:19:30.791Z,3.30
2023-04-22T22:21:58.827Z,3.10
2023-04-22T22:24:27.317Z,2.50
2023-04-22T22:26:58.093Z,2.70
2023-04-22T22:29:26.130Z,2.40
2023-04-22T22:31:54.260Z,2.20
2023-04-22T22:34:22.423Z,2.60
2023-04-22T22:36:50.715Z,2.90
2023-04-22T22:39:18.829Z,2.40
2023-04-22T22:41:47.303Z,2.30
2023-04-22T22:44:15.455Z,2.30
2023-04-22T22:46:43.531Z,2.70
2023-04-22T22:49:11.640Z,1.90
2023-04-22T22:51:39.675Z,2.10
2023-04-22T22:54:07.750Z,2.10
2023-04-22T22:56:35.861Z,2.00
2023-04-22T22:59:03.918Z,2.40
2023-04-22T23:01:32.048Z,2.20
2023-04-22T23:04:00.316Z,4.50
2023-04-22T23:06:28.768Z,2.10
2023-04-22T23:08:57.306Z,1.90
2023-04-22T23:11:25.639Z,2.80
2023-04-22T23:13:54.674Z,10.80
2023-04-22T23:16:22.917Z,4.60
2023-04-22T23:18:51.010Z,2.60
2023-04-22T23:21:19.500Z,2.20
2023-04-22T23:23:47.505Z,2.50
2023-04-22T23:26:16.110Z,2.10
2023-04-22T23:28:44.756Z,2.40
2023-04-22T23:31:12.842Z,2.40
2023-04-22T23:33:42.260Z,2.20
2023-04-22T23:36:10.934Z,3.00
2023-04-22T23:38:39.105Z,2.60
2023-04-22T23:41:07.380Z,2.70
2023-04-22T23:43:35.586Z,2.80
2023-04-22T23:46:04.215Z,2.50
2023-04-22T23:48:32.397Z,2.50
2023-04-22T23:51:00.822Z,2.10
2023-04-22T23:53:29.242Z,2.00
2023-04-22T23:55:57.816Z,3.20
2023-04-22T23:58:26.404Z,2.60
